Sovereign — ZGBZ4 — position and weather

sailwx.info

Track history (hours):
 
Tides and Currents Weather Stations Pressure Air Temp Water Temp Dewpoint Dewpoint Depression Visibility Wind Speed Wind Dir Waves Ship Positions

Sovereign

Last reported at 2015-Sep-03 14:31 UTC. Time now 2015-Sep-03 17:16 UTC.
Position N 43°44' E 007°25'.

Length 55 m; draft 3 m.

Type: Pleasure craft. MMSI: 319931000.

Date/timePositionNaut miles runAvg speedWind from/ knotsBaromVisibWave heightAir tempDewpointWater temp
2015-Sep-03 14:31N 43°44' E 007°25'0 0.0
2015-Sep-02 19:31N 43°44' E 007°25'0 0.0
2015-Sep-02 18:19N 43°44' E 007°25'0 0.0
2015-Sep-01 18:31N 43°44' E 007°25'0 0.0
2015-Sep-01 17:19N 43°44' E 007°25'0 0.0
2015-Sep-01 14:19N 43°44' E 007°25'0 0.0
2015-Sep-01 13:31N 43°44' E 007°25'0 0.0
2015-Sep-01 12:31N 43°44' E 007°25'0 0.0
2015-Sep-01 07:25N 43°44' E 007°25'0 0.0
2015-Sep-01 06:31N 43°44' E 007°25'0 0.0
2015-Sep-01 04:07N 43°44' E 007°25'0 0.0
2015-Sep-01 02:13N 43°44' E 007°25'0 0.0
2015-Sep-01 00:31N 43°44' E 007°25'0 0.0
2015-Aug-31 23:31N 43°44' E 007°25'0 0.0
2015-Aug-31 22:31N 43°44' E 007°25'0 0.0
2015-Aug-31 12:25N 43°44' E 007°25'0 0.0
2015-Aug-31 08:07N 43°44' E 007°25'0 0.0
2015-Aug-31 07:25N 43°44' E 007°25'0 0.0
2015-Aug-30 17:31N 43°44' E 007°25'0 0.0
2015-Aug-30 10:19N 43°44' E 007°25'0 0.0
2015-Aug-28 16:19N 43°44' E 007°25'0 0.0
2015-Aug-28 01:31N 43°44' E 007°25'0 0.0
2015-Aug-28 00:30N 43°44' E 007°25'0 0.0
2015-Aug-27 19:30N 43°44' E 007°25'0 0.0
2015-Aug-27 18:31N 43°44' E 007°25'0 0.0
2015-Aug-27 17:18N 43°44' E 007°25'0 0.0
2015-Aug-27 13:04N 43°44' E 007°26'4 7.4
2015-Aug-27 12:33N 43°41' E 007°22'1010.4
2015-Aug-27 11:33N 43°34' E 007°12'8 7.8
2015-Aug-27 10:33N 43°32' E 007°01'1 0.8
2015-Aug-27 09:14N 43°33' E 007°01'0 0.0
2015-Aug-27 06:14N 43°33' E 007°01'0 0.0
2015-Aug-27 05:14N 43°33' E 007°01'0 0.0
2015-Aug-27 04:20N 43°33' E 007°01'0 0.0
2015-Aug-27 03:32N 43°33' E 007°01'0 0.0
2015-Aug-27 02:32N 43°33' E 007°01'0 0.0
2015-Aug-27 01:26N 43°33' E 007°01'0 0.0
2015-Aug-27 00:32N 43°33' E 007°01'0 0.0
2015-Aug-26 23:27N 43°33' E 007°01'0 0.0
2015-Aug-26 22:26N 43°33' E 007°01'0 0.0
2015-Aug-26 21:14N 43°33' E 007°01'0 0.0
2015-Aug-26 20:32N 43°33' E 007°01'0 0.0
2015-Aug-26 19:32N 43°33' E 007°01'0 0.0
2015-Aug-26 18:32N 43°33' E 007°01'0 0.0
2015-Aug-26 17:32N 43°33' E 007°01'0 0.0
2015-Aug-26 16:32N 43°33' E 007°01'0 0.0
2015-Aug-26 15:32N 43°33' E 007°01'0 0.0
2015-Aug-26 14:26N 43°33' E 007°01'0 0.0
2015-Aug-26 13:32N 43°33' E 007°01'0 0.0
2015-Aug-26 12:20N 43°33' E 007°01'0 0.0
2015-Aug-26 11:26N 43°33' E 007°01'0 0.0
2015-Aug-26 10:20N 43°33' E 007°01'0 0.0
2015-Aug-26 09:32N 43°33' E 007°01'0 0.0
2015-Aug-26 08:33N 43°33' E 007°01'0 0.0
2015-Aug-26 07:32N 43°33' E 007°01'0 0.0
2015-Aug-26 06:32N 43°33' E 007°01'0 0.0
2015-Aug-26 05:32N 43°33' E 007°01'0 0.0
2015-Aug-26 04:32N 43°33' E 007°01'0 0.0
2015-Aug-26 03:32N 43°33' E 007°01'0 0.0
2015-Aug-26 02:32N 43°33' E 007°01'0 0.0
2015-Aug-26 01:32N 43°33' E 007°01'0 0.0
2015-Aug-26 00:32N 43°33' E 007°01'0 0.0
2015-Aug-25 23:32N 43°33' E 007°01'0 0.0
2015-Aug-25 22:32N 43°33' E 007°01'0 0.0
2015-Aug-25 21:32N 43°33' E 007°01'0 0.0
2015-Aug-25 20:32N 43°33' E 007°01'0 0.0
2015-Aug-25 19:32N 43°33' E 007°01'0 0.0
2015-Aug-25 18:32N 43°33' E 007°01'0 0.0
2015-Aug-25 17:32N 43°33' E 007°01'0 0.0
2015-Aug-25 16:32N 43°33' E 007°01'0 0.0
2015-Aug-25 15:26N 43°33' E 007°01'0 0.0
2015-Aug-25 14:32N 43°33' E 007°01'0 0.0
2015-Aug-25 13:26N 43°33' E 007°01'0 0.0
2015-Aug-25 12:33N 43°33' E 007°01'1 0.5
2015-Aug-25 11:26N 43°32' E 007°01'0 0.0
2015-Aug-25 10:32N 43°32' E 007°01'2 2.5
2015-Aug-25 09:33N 43°30' E 006°60'1110.8
2015-Aug-25 08:33N 43°22' E 006°50'1010.4
2015-Aug-25 07:33N 43°16' E 006°38'0 0.0
2015-Aug-25 06:30N 43°16' E 006°38'0 0.0
2015-Aug-25 05:30N 43°16' E 006°38'0 0.0
2015-Aug-25 04:30N 43°16' E 006°38'0 0.0
2015-Aug-25 03:30N 43°16' E 006°38'0 0.0
2015-Aug-25 02:30N 43°16' E 006°38'0 0.0
2015-Aug-25 01:30N 43°16' E 006°38'0 0.0
2015-Aug-25 00:30N 43°16' E 006°38'0 0.0
2015-Aug-24 23:30N 43°16' E 006°38'0 0.0
2015-Aug-24 22:30N 43°16' E 006°38'0 0.0
2015-Aug-24 21:30N 43°16' E 006°38'0 0.0
2015-Aug-24 20:30N 43°16' E 006°38'0 0.0
2015-Aug-24 19:30N 43°16' E 006°38'0 0.0
2015-Aug-24 18:27N 43°16' E 006°38'0 0.0
2015-Aug-24 17:30N 43°16' E 006°38'0 0.0
2015-Aug-24 16:24N 43°16' E 006°38'0 0.0
2015-Aug-24 15:30N 43°16' E 006°38'  
Track history (hours):
 
Tides and Currents Weather Stations Pressure Air Temp Water Temp Dewpoint Dewpoint Depression Visibility Wind Speed Wind Dir Waves Ship Positions

Sovereign

Last reported at 2015-Sep-03 14:31 UTC. Time now 2015-Sep-03 17:16 UTC.
Position N 43°44' E 007°25'.

Length 55 m; draft 3 m.

Type: Pleasure craft. MMSI: 319931000.

Date/timePositionNaut miles runAvg speedWind from/ knotsBaromVisibWave heightAir tempDewpointWater temp
2015-Sep-03 14:31N 43°44' E 007°25'0 0.0
2015-Sep-02 19:31N 43°44' E 007°25'0 0.0
2015-Sep-02 18:19N 43°44' E 007°25'0 0.0
2015-Sep-01 18:31N 43°44' E 007°25'0 0.0
2015-Sep-01 17:19N 43°44' E 007°25'0 0.0
2015-Sep-01 14:19N 43°44' E 007°25'0 0.0
2015-Sep-01 13:31N 43°44' E 007°25'0 0.0
2015-Sep-01 12:31N 43°44' E 007°25'0 0.0
2015-Sep-01 07:25N 43°44' E 007°25'0 0.0
2015-Sep-01 06:31N 43°44' E 007°25'0 0.0
2015-Sep-01 04:07N 43°44' E 007°25'0 0.0
2015-Sep-01 02:13N 43°44' E 007°25'0 0.0
2015-Sep-01 00:31N 43°44' E 007°25'0 0.0
2015-Aug-31 23:31N 43°44' E 007°25'0 0.0
2015-Aug-31 22:31N 43°44' E 007°25'0 0.0
2015-Aug-31 12:25N 43°44' E 007°25'0 0.0
2015-Aug-31 08:07N 43°44' E 007°25'0 0.0
2015-Aug-31 07:25N 43°44' E 007°25'0 0.0
2015-Aug-30 17:31N 43°44' E 007°25'0 0.0
2015-Aug-30 10:19N 43°44' E 007°25'0 0.0
2015-Aug-28 16:19N 43°44' E 007°25'0 0.0
2015-Aug-28 01:31N 43°44' E 007°25'0 0.0
2015-Aug-28 00:30N 43°44' E 007°25'0 0.0
2015-Aug-27 19:30N 43°44' E 007°25'0 0.0
2015-Aug-27 18:31N 43°44' E 007°25'0 0.0
2015-Aug-27 17:18N 43°44' E 007°25'0 0.0
2015-Aug-27 13:04N 43°44' E 007°26'4 7.4
2015-Aug-27 12:33N 43°41' E 007°22'1010.4
2015-Aug-27 11:33N 43°34' E 007°12'8 7.8
2015-Aug-27 10:33N 43°32' E 007°01'1 0.8
2015-Aug-27 09:14N 43°33' E 007°01'0 0.0
2015-Aug-27 06:14N 43°33' E 007°01'0 0.0
2015-Aug-27 05:14N 43°33' E 007°01'0 0.0
2015-Aug-27 04:20N 43°33' E 007°01'0 0.0
2015-Aug-27 03:32N 43°33' E 007°01'0 0.0
2015-Aug-27 02:32N 43°33' E 007°01'0 0.0
2015-Aug-27 01:26N 43°33' E 007°01'0 0.0
2015-Aug-27 00:32N 43°33' E 007°01'0 0.0
2015-Aug-26 23:27N 43°33' E 007°01'0 0.0
2015-Aug-26 22:26N 43°33' E 007°01'0 0.0
2015-Aug-26 21:14N 43°33' E 007°01'0 0.0
2015-Aug-26 20:32N 43°33' E 007°01'0 0.0
2015-Aug-26 19:32N 43°33' E 007°01'0 0.0
2015-Aug-26 18:32N 43°33' E 007°01'0 0.0
2015-Aug-26 17:32N 43°33' E 007°01'0 0.0
2015-Aug-26 16:32N 43°33' E 007°01'0 0.0
2015-Aug-26 15:32N 43°33' E 007°01'0 0.0
2015-Aug-26 14:26N 43°33' E 007°01'0 0.0
2015-Aug-26 13:32N 43°33' E 007°01'0 0.0
2015-Aug-26 12:20N 43°33' E 007°01'0 0.0
2015-Aug-26 11:26N 43°33' E 007°01'0 0.0
2015-Aug-26 10:20N 43°33' E 007°01'0 0.0
2015-Aug-26 09:32N 43°33' E 007°01'0 0.0
2015-Aug-26 08:33N 43°33' E 007°01'0 0.0
2015-Aug-26 07:32N 43°33' E 007°01'0 0.0
2015-Aug-26 06:32N 43°33' E 007°01'0 0.0
2015-Aug-26 05:32N 43°33' E 007°01'0 0.0
2015-Aug-26 04:32N 43°33' E 007°01'0 0.0
2015-Aug-26 03:32N 43°33' E 007°01'0 0.0
2015-Aug-26 02:32N 43°33' E 007°01'0 0.0
2015-Aug-26 01:32N 43°33' E 007°01'0 0.0
2015-Aug-26 00:32N 43°33' E 007°01'0 0.0
2015-Aug-25 23:32N 43°33' E 007°01'0 0.0
2015-Aug-25 22:32N 43°33' E 007°01'0 0.0
2015-Aug-25 21:32N 43°33' E 007°01'0 0.0
2015-Aug-25 20:32N 43°33' E 007°01'0 0.0
2015-Aug-25 19:32N 43°33' E 007°01'0 0.0
2015-Aug-25 18:32N 43°33' E 007°01'0 0.0
2015-Aug-25 17:32N 43°33' E 007°01'0 0.0
2015-Aug-25 16:32N 43°33' E 007°01'0 0.0
2015-Aug-25 15:26N 43°33' E 007°01'0 0.0
2015-Aug-25 14:32N 43°33' E 007°01'0 0.0
2015-Aug-25 13:26N 43°33' E 007°01'0 0.0
2015-Aug-25 12:33N 43°33' E 007°01'1 0.5
2015-Aug-25 11:26N 43°32' E 007°01'0 0.0
2015-Aug-25 10:32N 43°32' E 007°01'2 2.5
2015-Aug-25 09:33N 43°30' E 006°60'1110.8
2015-Aug-25 08:33N 43°22' E 006°50'1010.4
2015-Aug-25 07:33N 43°16' E 006°38'0 0.0
2015-Aug-25 06:30N 43°16' E 006°38'0 0.0
2015-Aug-25 05:30N 43°16' E 006°38'0 0.0
2015-Aug-25 04:30N 43°16' E 006°38'0 0.0
2015-Aug-25 03:30N 43°16' E 006°38'0 0.0
2015-Aug-25 02:30N 43°16' E 006°38'0 0.0
2015-Aug-25 01:30N 43°16' E 006°38'0 0.0
2015-Aug-25 00:30N 43°16' E 006°38'0 0.0
2015-Aug-24 23:30N 43°16' E 006°38'0 0.0
2015-Aug-24 22:30N 43°16' E 006°38'0 0.0
2015-Aug-24 21:30N 43°16' E 006°38'0 0.0
2015-Aug-24 20:30N 43°16' E 006°38'0 0.0
2015-Aug-24 19:30N 43°16' E 006°38'0 0.0
2015-Aug-24 18:27N 43°16' E 006°38'0 0.0
2015-Aug-24 17:30N 43°16' E 006°38'0 0.0
2015-Aug-24 16:24N 43°16' E 006°38'0 0.0
2015-Aug-24 15:30N 43°16' E 006°38'  

Dump ship's entire track history